Time;durP1;ratioP1;P1;durP2;ratioP2;P2;SDS_P1;SDS_P2;PMS_P1;PMS_P2;Temp;Humidity;BMP_temperature;BMP_pressure;BME280_temperature;BME280_humidity;BME280_pressure;Samples;Min_cycle;Max_cycle;Signal;HPM_P1;HPM_P2
2022/07/08 00:01:33;;;;;;;13.82;3.85;;;18.70;96.90;;;;;;5046331;28;20053;-66
2022/07/08 00:03:59;;;;;;;11.95;3.80;;;18.70;96.90;;;;;;5046306;28;20062;-67
2022/07/08 00:06:25;;;;;;;10.77;3.40;;;18.70;97.00;;;;;;5045278;28;20253;-68
2022/07/08 00:08:51;;;;;;;11.43;3.55;;;18.60;97.20;;;;;;5046018;28;20032;-67
2022/07/08 00:11:17;;;;;;;16.40;4.07;;;18.60;97.40;;;;;;5045155;28;20025;-68
2022/07/08 00:13:42;;;;;;;9.88;3.38;;;18.50;97.50;;;;;;5045022;28;20232;-67
2022/07/08 00:16:08;;;;;;;14.15;3.72;;;18.50;97.60;;;;;;5045036;28;20296;-67
2022/07/08 00:18:34;;;;;;;15.02;3.88;;;18.40;97.70;;;;;;5045855;28;20080;-68
2022/07/08 00:21:00;;;;;;;8.43;3.40;;;18.40;97.80;;;;;;5046032;28;20286;-67
2022/07/08 00:23:26;;;;;;;11.07;3.40;;;18.40;97.90;;;;;;5044903;28;20057;-67
2022/07/08 00:25:51;;;;;;;9.65;3.55;;;18.40;98.00;;;;;;5045560;28;20312;-67
2022/07/08 00:28:17;;;;;;;11.23;3.78;;;18.30;98.10;;;;;;5045745;28;20025;-67
2022/07/08 00:30:42;;;;;;;6.93;3.00;;;18.30;98.10;;;;;;5045827;28;20025;-67
2022/07/08 00:33:08;;;;;;;7.38;3.55;;;18.30;98.10;;;;;;5043963;28;20318;-67
2022/07/08 00:35:34;;;;;;;9.00;3.28;;;18.30;98.10;;;;;;5045511;28;20316;-68
2022/07/08 00:37:59;;;;;;;10.95;3.38;;;18.20;98.20;;;;;;5045376;28;20064;-67
2022/07/08 00:40:25;;;;;;;12.27;3.88;;;18.10;98.30;;;;;;5045895;28;20021;-67
2022/07/08 00:42:51;;;;;;;9.05;3.20;;;18.00;98.30;;;;;;5045532;28;20025;-67
2022/07/08 00:45:16;;;;;;;7.75;3.65;;;17.90;98.60;;;;;;5045408;28;20040;-67
2022/07/08 00:47:43;;;;;;;6.30;3.67;;;17.80;98.70;;;;;;5044360;28;20088;-67
2022/07/08 00:50:10;;;;;;;7.07;3.58;;;17.70;98.80;;;;;;5045423;28;20032;-67
2022/07/08 00:52:39;;;;;;;9.70;4.18;;;17.70;98.90;;;;;;5045310;28;20104;-68
2022/07/08 00:55:07;;;;;;;7.97;3.95;;;17.60;99.00;;;;;;5045219;28;20159;-67
2022/07/08 00:57:33;;;;;;;7.70;4.03;;;17.60;99.20;;;;;;5044948;28;20064;-67
2022/07/08 00:59:59;;;;;;;8.00;4.05;;;17.50;99.30;;;;;;5044014;28;20049;-67
2022/07/08 01:02:25;;;;;;;7.47;3.33;;;17.50;99.40;;;;;;5045370;28;20020;-68
2022/07/08 01:04:51;;;;;;;6.57;3.70;;;17.50;99.40;;;;;;5043951;28;20028;-67
2022/07/08 01:07:17;;;;;;;9.52;3.92;;;17.50;99.50;;;;;;5043988;28;20024;-67
2022/07/08 01:09:43;;;;;;;9.85;4.32;;;17.40;99.60;;;;;;5044852;28;20025;-67
2022/07/08 01:12:09;;;;;;;10.05;3.85;;;17.40;99.60;;;;;;5045123;28;20132;-67
2022/07/08 01:14:35;;;;;;;8.43;3.83;;;17.40;99.70;;;;;;5045370;28;20059;-68
2022/07/08 01:17:01;;;;;;;8.88;3.83;;;17.40;99.60;;;;;;5044848;28;20021;-67
2022/07/08 01:19:26;;;;;;;7.78;3.65;;;17.40;99.60;;;;;;5044546;28;20040;-68
2022/07/08 01:21:52;;;;;;;8.38;3.78;;;17.30;99.70;;;;;;5044836;28;20358;-67
2022/07/08 01:24:18;;;;;;;5.93;3.80;;;17.30;99.70;;;;;;5044997;28;20025;-67
2022/07/08 01:26:45;;;;;;;9.52;4.07;;;17.20;99.80;;;;;;5044430;28;20022;-68
2022/07/08 01:29:11;;;;;;;9.63;4.30;;;17.20;99.90;;;;;;5044528;28;20049;-67
2022/07/08 01:31:38;;;;;;;14.20;3.97;;;17.10;99.90;;;;;;5044495;28;20017;-67
2022/07/08 01:34:04;;;;;;;8.82;3.55;;;17.10;99.90;;;;;;5043277;28;20159;-67
2022/07/08 01:36:30;;;;;;;10.55;3.53;;;17.10;99.90;;;;;;5044494;28;20312;-67
2022/07/08 01:38:56;;;;;;;10.10;3.67;;;17.00;99.90;;;;;;5044571;28;20029;-67
2022/07/08 01:41:22;;;;;;;6.22;3.28;;;17.00;99.90;;;;;;5044305;28;20220;-67
2022/07/08 01:43:47;;;;;;;10.70;3.55;;;16.90;99.90;;;;;;5044232;28;20025;-67
2022/07/08 01:46:13;;;;;;;6.53;3.50;;;16.90;99.90;;;;;;5044421;28;20342;-67
2022/07/08 01:48:39;;;;;;;8.05;3.15;;;16.90;99.90;;;;;;5043382;28;20028;-67
2022/07/08 01:51:05;;;;;;;5.93;3.30;;;16.90;99.90;;;;;;5042502;28;20021;-68
2022/07/08 01:53:31;;;;;;;4.57;3.33;;;16.90;99.90;;;;;;5044108;28;20294;-67
2022/07/08 01:55:56;;;;;;;8.90;3.30;;;16.90;99.90;;;;;;5042557;28;20103;-67
2022/07/08 01:58:22;;;;;;;7.13;3.65;;;16.90;99.90;;;;;;5044566;28;20025;-67
2022/07/08 02:00:48;;;;;;;9.65;3.50;;;16.90;99.90;;;;;;5043929;28;20022;-68
2022/07/08 02:03:13;;;;;;;7.95;3.60;;;16.90;99.90;;;;;;5043003;28;20071;-67
2022/07/08 02:05:39;;;;;;;9.15;3.60;;;16.90;99.90;;;;;;5043999;28;20021;-67
2022/07/08 02:08:05;;;;;;;7.50;3.30;;;16.80;99.90;;;;;;5043960;28;20181;-67
2022/07/08 02:12:18;;;;;;;6.68;3.15;;;16.80;99.90;;;;;;5043943;28;20017;-67
2022/07/08 02:13:17;;;;;;;7.20;3.72;;;16.80;99.90;;;;;;5042991;28;20017;-67
2022/07/08 02:15:44;;;;;;;8.55;3.67;;;16.80;99.90;;;;;;5043648;28;20033;-67
2022/07/08 02:18:11;;;;;;;6.05;3.50;;;16.80;99.90;;;;;;5042452;28;20041;-68
2022/07/08 02:20:36;;;;;;;11.75;3.70;;;16.90;99.90;;;;;;5042709;28;20033;-67
2022/07/08 02:23:02;;;;;;;7.70;3.78;;;16.80;99.90;;;;;;5042602;28;20313;-67
2022/07/08 02:25:27;;;;;;;7.47;3.80;;;16.80;99.90;;;;;;5025800;28;20263;-67
2022/07/08 02:27:53;;;;;;;7.03;3.72;;;16.80;99.90;;;;;;5043782;28;20041;-67
2022/07/08 02:30:19;;;;;;;10.18;3.33;;;16.80;99.90;;;;;;5043450;28;20028;-67
2022/07/08 02:32:45;;;;;;;6.57;3.38;;;16.80;99.90;;;;;;5043794;28;20080;-67
2022/07/08 02:35:11;;;;;;;8.32;3.60;;;16.80;99.90;;;;;;5042166;28;20014;-67
2022/07/08 02:37:36;;;;;;;8.88;4.00;;;16.70;99.90;;;;;;5043375;28;20041;-67
2022/07/08 02:40:02;;;;;;;13.27;4.35;;;16.60;99.90;;;;;;5042473;28;20347;-66
2022/07/08 02:42:29;;;;;;;12.35;4.13;;;16.60;99.90;;;;;;5043584;28;20099;-67
2022/07/08 02:44:55;;;;;;;9.77;3.92;;;16.50;99.90;;;;;;5043356;28;20025;-67
2022/07/08 02:47:21;;;;;;;12.25;4.00;;;16.50;99.90;;;;;;5043503;28;20065;-67
2022/07/08 02:49:46;;;;;;;8.93;3.70;;;16.50;99.90;;;;;;5042241;28;20304;-68
2022/07/08 02:52:12;;;;;;;14.10;3.90;;;16.50;99.90;;;;;;5043127;28;20029;-67
2022/07/08 02:54:38;;;;;;;8.27;4.43;;;16.50;99.90;;;;;;5043471;28;20021;-67
2022/07/08 02:57:04;;;;;;;10.82;4.57;;;16.50;99.90;;;;;;5042929;28;20060;-66
2022/07/08 02:59:29;;;;;;;7.72;4.25;;;16.60;99.90;;;;;;5043066;28;20030;-67
2022/07/08 03:01:55;;;;;;;9.63;4.13;;;16.70;99.90;;;;;;5045610;28;20029;-67
2022/07/08 03:04:21;;;;;;;9.82;4.15;;;16.70;99.90;;;;;;5047538;28;20079;-67
2022/07/08 03:06:46;;;;;;;8.07;3.90;;;16.70;99.90;;;;;;5047291;28;20021;-67
2022/07/08 03:09:12;;;;;;;8.57;3.90;;;16.70;99.90;;;;;;5047422;28;20026;-67
2022/07/08 03:11:38;;;;;;;9.68;3.97;;;16.70;99.90;;;;;;5045927;28;20025;-67
2022/07/08 03:14:03;;;;;;;7.35;3.63;;;16.60;99.90;;;;;;5047257;28;20040;-67
2022/07/08 03:16:29;;;;;;;8.88;3.92;;;16.60;99.90;;;;;;5047213;28;20059;-67
2022/07/08 03:18:55;;;;;;;6.75;3.55;;;16.60;99.90;;;;;;5047364;28;20033;-67
2022/07/08 03:21:20;;;;;;;8.32;3.80;;;16.70;99.90;;;;;;5046989;28;20041;-67
2022/07/08 03:23:46;;;;;;;10.23;4.15;;;16.60;99.90;;;;;;5046858;28;20036;-67
2022/07/08 03:26:12;;;;;;;13.07;4.00;;;16.60;99.90;;;;;;5045412;28;20045;-68
2022/07/08 03:28:37;;;;;;;9.93;4.55;;;16.60;99.90;;;;;;5046920;28;20025;-67
2022/07/08 03:31:03;;;;;;;9.10;3.85;;;16.50;99.90;;;;;;5045653;28;20064;-67
2022/07/08 03:33:29;;;;;;;7.70;4.43;;;16.50;99.90;;;;;;5046747;28;20052;-67
2022/07/08 03:35:54;;;;;;;8.23;4.18;;;16.50;99.90;;;;;;5043920;28;20013;-66
2022/07/08 03:38:20;;;;;;;12.30;3.92;;;16.50;99.90;;;;;;5046629;28;20217;-67
2022/07/08 03:43:31;;;;;;;13.88;4.18;;;16.40;99.90;;;;;;5031922;28;20022;-67
2022/07/08 03:45:57;;;;;;;10.63;4.70;;;16.40;99.90;;;;;;5046623;28;20025;-67
2022/07/08 03:48:22;;;;;;;10.93;4.30;;;16.30;99.90;;;;;;5045608;28;20029;-67
2022/07/08 03:50:48;;;;;;;12.60;4.10;;;16.20;99.90;;;;;;5045670;28;20053;-67
2022/07/08 03:53:13;;;;;;;9.05;4.63;;;16.20;99.90;;;;;;5044878;28;20049;-67
2022/07/08 03:55:39;;;;;;;8.27;4.50;;;16.10;99.90;;;;;;5046211;28;20217;-67
2022/07/08 03:58:05;;;;;;;7.88;3.90;;;16.00;99.90;;;;;;5046487;28;20029;-67
2022/07/08 04:00:30;;;;;;;10.65;3.92;;;15.90;99.90;;;;;;5046570;28;20097;-67
2022/07/08 04:02:56;;;;;;;13.27;4.40;;;15.90;99.90;;;;;;5045266;28;20036;-67
2022/07/08 04:05:22;;;;;;;7.47;4.18;;;15.80;99.90;;;;;;5046345;28;20029;-67
2022/07/08 04:07:47;;;;;;;9.68;3.90;;;15.80;99.90;;;;;;5046367;28;20064;-68
2022/07/08 04:10:13;;;;;;;10.02;4.43;;;15.70;99.90;;;;;;5061914;28;20044;-67
2022/07/08 04:12:38;;;;;;;10.68;4.22;;;15.60;99.90;;;;;;5045614;28;20048;-66
2022/07/08 04:15:05;;;;;;;8.00;4.05;;;15.60;99.90;;;;;;5044906;28;20331;-65
2022/07/08 04:17:30;;;;;;;9.55;4.07;;;15.60;99.90;;;;;;5046126;28;20093;-66
2022/07/08 04:19:56;;;;;;;6.55;3.67;;;15.70;99.90;;;;;;5046089;28;20033;-66
2022/07/08 04:22:22;;;;;;;6.57;3.67;;;15.60;99.90;;;;;;5061351;28;20312;-66
2022/07/08 04:24:47;;;;;;;8.07;4.10;;;15.60;99.90;;;;;;5061412;28;20048;-65
2022/07/08 04:27:13;;;;;;;10.13;4.50;;;15.60;99.90;;;;;;5045775;28;20083;-66
2022/07/08 04:29:38;;;;;;;6.55;3.47;;;15.60;99.90;;;;;;5045904;28;20021;-65
2022/07/08 04:32:04;;;;;;;8.38;4.50;;;15.60;99.90;;;;;;5044655;28;20037;-66
2022/07/08 04:34:30;;;;;;;7.50;3.65;;;15.60;99.90;;;;;;5045709;28;20131;-66
2022/07/08 04:36:57;;;;;;;5.28;3.40;;;15.70;99.90;;;;;;5044119;28;20035;-66
2022/07/08 04:39:23;;;;;;;7.18;3.45;;;15.80;99.90;;;;;;5045664;28;20252;-66
2022/07/08 04:41:48;;;;;;;7.13;3.50;;;16.00;99.90;;;;;;5045612;28;20018;-67
2022/07/08 04:44:14;;;;;;;5.10;3.05;;;16.20;99.90;;;;;;5028050;28;20021;-66
2022/07/08 04:46:39;;;;;;;4.72;2.83;;;16.40;99.90;;;;;;5044541;28;20021;-66
2022/07/08 04:49:05;;;;;;;4.55;2.97;;;16.60;99.90;;;;;;5044598;28;20029;-66
2022/07/08 04:51:31;;;;;;;8.10;3.40;;;16.70;99.90;;;;;;5044118;28;20030;-65
2022/07/08 04:53:56;;;;;;;6.30;3.13;;;16.90;99.90;;;;;;5044860;28;20053;-66
2022/07/08 04:56:22;;;;;;;6.13;3.10;;;17.00;99.80;;;;;;5044084;28;20071;-66
2022/07/08 04:58:47;;;;;;;8.77;3.25;;;17.20;99.60;;;;;;5045334;28;20037;-66
2022/07/08 05:01:14;;;;;;;4.97;3.20;;;17.40;99.20;;;;;;5045366;28;20327;-66
2022/07/08 05:03:40;;;;;;;9.52;3.03;;;17.70;98.70;;;;;;5044106;28;20025;-66
2022/07/08 05:06:06;;;;;;;6.80;3.03;;;17.90;98.20;;;;;;5045187;28;20030;-66
2022/07/08 05:08:32;;;;;;;6.43;3.05;;;18.10;97.80;;;;;;5045325;28;20032;-67
2022/07/08 05:10:57;;;;;;;6.15;2.92;;;18.40;97.20;;;;;;5044164;28;20029;-66
2022/07/08 05:13:23;;;;;;;5.88;3.33;;;18.40;96.90;;;;;;5044740;28;20026;-66
2022/07/08 05:15:49;;;;;;;6.63;3.40;;;18.40;96.80;;;;;;5044954;28;20197;-66
2022/07/08 05:18:14;;;;;;;6.88;3.22;;;18.50;96.70;;;;;;5043896;28;20304;-66
2022/07/08 05:20:40;;;;;;;6.20;3.40;;;18.70;96.50;;;;;;5044868;28;20067;-67
2022/07/08 05:23:05;;;;;;;12.27;3.75;;;18.80;96.30;;;;;;5043496;28;20037;-66
2022/07/08 05:25:31;;;;;;;7.90;3.80;;;18.80;96.20;;;;;;5043483;28;20026;-66
2022/07/08 05:27:57;;;;;;;8.30;3.42;;;18.70;96.30;;;;;;5043564;28;20228;-66
2022/07/08 05:30:22;;;;;;;7.30;3.63;;;18.50;96.50;;;;;;5044687;28;20021;-66
2022/07/08 05:32:48;;;;;;;9.18;3.90;;;18.40;96.80;;;;;;5044571;28;20309;-66
2022/07/08 05:35:14;;;;;;;10.45;3.97;;;18.10;97.40;;;;;;5043047;28;20017;-66
2022/07/08 05:37:40;;;;;;;17.50;5.00;;;17.90;98.00;;;;;;5042113;28;20022;-66
2022/07/08 05:40:08;;;;;;;14.88;4.60;;;17.90;98.10;;;;;;5043360;28;20041;-65
2022/07/08 05:42:35;;;;;;;19.70;4.35;;;17.80;98.50;;;;;;5044358;28;20096;-66
2022/07/08 05:45:00;;;;;;;16.83;4.63;;;17.80;98.60;;;;;;5043030;28;20052;-66
2022/07/08 05:47:26;;;;;;;19.88;4.70;;;17.70;98.80;;;;;;5044108;28;20239;-66
2022/07/08 05:49:52;;;;;;;21.55;4.78;;;17.80;99.00;;;;;;5043156;28;20053;-66
2022/07/08 05:52:18;;;;;;;5.97;3.22;;;17.80;98.90;;;;;;5043094;28;20071;-68
2022/07/08 05:54:45;;;;;;;8.32;3.35;;;17.90;99.10;;;;;;5042577;28;20021;-68
2022/07/08 05:57:11;;;;;;;6.35;2.92;;;18.00;99.00;;;;;;5042701;28;20025;-68
2022/07/08 05:59:37;;;;;;;7.07;2.88;;;18.10;98.70;;;;;;5044200;28;20411;-68
2022/07/08 06:02:03;;;;;;;8.23;2.80;;;18.20;98.60;;;;;;5044205;28;20037;-68
2022/07/08 06:04:29;;;;;;;9.98;3.10;;;18.30;98.50;;;;;;5042778;28;20243;-66
2022/07/08 06:06:55;;;;;;;3.97;2.45;;;18.40;98.50;;;;;;5044125;28;20025;-68
2022/07/08 06:09:20;;;;;;;7.05;2.65;;;18.40;98.60;;;;;;5042936;28;20032;-67
2022/07/08 06:11:46;;;;;;;6.57;1.85;;;18.40;98.70;;;;;;5042668;28;20092;-67
2022/07/08 06:14:12;;;;;;;7.55;2.95;;;18.50;98.30;;;;;;5042791;28;20021;-67
2022/07/08 06:16:37;;;;;;;4.78;2.42;;;18.60;98.50;;;;;;5042768;28;20036;-67
2022/07/08 06:19:03;;;;;;;6.28;2.47;;;18.60;98.50;;;;;;5043537;28;20033;-67
2022/07/08 06:21:29;;;;;;;7.35;2.40;;;18.70;98.30;;;;;;5043645;28;20025;-67
2022/07/08 06:23:54;;;;;;;8.70;2.58;;;18.80;98.20;;;;;;5043622;28;20067;-67
2022/07/08 06:26:20;;;;;;;4.13;2.05;;;18.80;98.10;;;;;;5042934;28;20057;-67
2022/07/08 06:28:46;;;;;;;5.65;2.35;;;18.90;97.90;;;;;;5043382;28;20028;-67
2022/07/08 06:31:11;;;;;;;10.95;2.90;;;18.90;98.00;;;;;;5042164;28;20080;-67
2022/07/08 06:33:37;;;;;;;4.63;1.13;;;18.90;98.10;;;;;;5042443;28;20029;-67
2022/07/08 06:36:03;;;;;;;2.63;1.02;;;19.00;97.70;;;;;;5041984;28;20037;-67
2022/07/08 06:38:28;;;;;;;2.05;0.90;;;19.00;97.00;;;;;;5041433;28;20029;-67
2022/07/08 06:40:54;;;;;;;1.63;0.90;;;19.00;96.80;;;;;;5025821;28;20060;-66
2022/07/08 06:43:20;;;;;;;1.13;0.95;;;19.10;96.80;;;;;;5043335;28;20017;-67
2022/07/08 06:45:46;;;;;;;2.28;1.17;;;19.10;96.60;;;;;;5043095;28;20033;-68
2022/07/08 06:48:12;;;;;;;1.90;0.80;;;19.20;96.40;;;;;;5043438;28;20025;-66
2022/07/08 06:50:38;;;;;;;2.35;1.00;;;19.20;96.30;;;;;;5042324;28;20358;-68
2022/07/08 06:53:03;;;;;;;2.42;1.20;;;19.10;96.40;;;;;;5043051;28;20068;-68
2022/07/08 06:55:29;;;;;;;3.60;1.02;;;19.10;96.40;;;;;;5041530;28;20048;-66
2022/07/08 06:57:55;;;;;;;2.15;1.00;;;19.10;96.40;;;;;;5041644;28;20022;-68
2022/07/08 07:00:22;;;;;;;2.08;1.10;;;19.20;96.40;;;;;;5051737;28;20027;-67
2022/07/08 07:02:48;;;;;;;2.67;1.05;;;19.30;96.20;;;;;;5061020;28;20029;-69
2022/07/08 07:05:14;;;;;;;3.05;0.88;;;19.30;96.10;;;;;;5055539;28;20021;-69
2022/07/08 07:07:39;;;;;;;2.05;0.95;;;19.20;96.10;;;;;;5042752;28;20081;-69
2022/07/08 07:10:06;;;;;;;1.50;1.00;;;19.20;96.40;;;;;;5040999;28;20037;-69
2022/07/08 07:12:31;;;;;;;6.38;1.58;;;19.40;96.10;;;;;;5040805;28;20308;-66
2022/07/08 07:14:57;;;;;;;2.03;1.00;;;19.50;96.00;;;;;;5041126;28;20029;-66
2022/07/08 07:17:23;;;;;;;1.48;0.90;;;19.60;95.70;;;;;;5040582;28;20080;-67
2022/07/08 07:19:49;;;;;;;2.50;1.00;;;19.60;95.60;;;;;;5024043;28;20075;-67
2022/07/08 07:22:16;;;;;;;3.20;0.85;;;19.70;95.30;;;;;;5041086;28;20029;-67
2022/07/08 07:24:42;;;;;;;1.70;0.90;;;19.70;95.10;;;;;;5042263;28;20041;-67
2022/07/08 07:27:08;;;;;;;1.60;0.73;;;19.80;95.20;;;;;;5038445;28;20029;-67
2022/07/08 07:29:34;;;;;;;1.48;0.90;;;19.90;94.80;;;;;;5056008;28;20371;-69
2022/07/08 07:32:00;;;;;;;1.88;0.63;;;20.00;94.70;;;;;;5040218;28;20096;-69
2022/07/08 07:34:25;;;;;;;4.57;0.70;;;19.90;94.90;;;;;;5039250;28;20300;-67
2022/07/08 07:36:51;;;;;;;3.60;0.73;;;20.00;94.60;;;;;;5042057;28;20083;-67
2022/07/08 07:39:17;;;;;;;1.25;0.70;;;20.10;94.50;;;;;;5041228;28;20037;-67
2022/07/08 07:41:43;;;;;;;2.85;0.82;;;20.10;94.30;;;;;;5043245;28;20036;-67
2022/07/08 07:44:08;;;;;;;4.38;1.00;;;20.20;94.10;;;;;;5044302;28;20017;-69
2022/07/08 07:46:35;;;;;;;2.15;0.80;;;20.20;94.20;;;;;;5042298;28;20052;-69
2022/07/08 07:49:01;;;;;;;4.32;0.73;;;20.30;93.90;;;;;;5045670;28;20088;-68
2022/07/08 07:51:27;;;;;;;2.20;0.77;;;20.30;93.70;;;;;;5046412;28;20032;-69
2022/07/08 07:53:54;;;;;;;2.40;0.70;;;20.20;93.70;;;;;;5045280;28;20073;-69
2022/07/08 07:56:20;;;;;;;1.55;0.80;;;20.30;93.70;;;;;;5061158;28;20067;-69
2022/07/08 07:58:45;;;;;;;1.58;0.80;;;20.30;93.90;;;;;;5047574;28;20281;-69
2022/07/08 08:01:11;;;;;;;4.15;0.90;;;20.30;94.00;;;;;;5046331;28;20084;-68
2022/07/08 08:03:37;;;;;;;1.20;0.82;;;20.50;93.90;;;;;;5044893;28;20017;-68
2022/07/08 08:06:04;;;;;;;2.63;0.80;;;20.50;93.70;;;;;;5057641;28;20040;-68
2022/07/08 08:08:33;;;;;;;3.00;0.77;;;20.50;93.80;;;;;;5045565;28;20256;-68
2022/07/08 08:11:00;;;;;;;1.67;0.65;;;20.60;93.50;;;;;;5044937;28;20021;-67
2022/07/08 08:13:26;;;;;;;2.08;0.70;;;20.70;93.60;;;;;;5044170;28;20067;-70
2022/07/08 08:15:51;;;;;;;3.05;0.73;;;20.80;93.30;;;;;;5044357;28;20084;-69
2022/07/08 08:18:17;;;;;;;5.00;0.82;;;20.90;93.20;;;;;;5043332;28;20053;-68
2022/07/08 08:20:43;;;;;;;2.40;0.88;;;20.80;93.00;;;;;;5043526;28;20339;-68
2022/07/08 08:23:09;;;;;;;2.40;0.63;;;20.80;93.10;;;;;;5043999;28;20029;-69
2022/07/08 08:25:35;;;;;;;3.42;0.82;;;20.80;93.10;;;;;;5043914;28;20068;-67
2022/07/08 08:28:02;;;;;;;2.80;0.70;;;20.80;92.80;;;;;;5044968;28;20088;-68
2022/07/08 08:30:27;;;;;;;2.33;0.93;;;20.80;93.00;;;;;;5045180;28;20038;-68
2022/07/08 08:32:53;;;;;;;3.80;0.68;;;20.90;93.10;;;;;;5045180;28;20071;-69
2022/07/08 08:35:19;;;;;;;1.42;0.80;;;21.00;92.70;;;;;;5045056;28;20029;-68
2022/07/08 08:37:45;;;;;;;1.77;0.88;;;21.00;92.60;;;;;;5044445;28;20108;-71
2022/07/08 08:40:12;;;;;;;1.40;0.80;;;21.00;92.50;;;;;;5042412;28;20202;-68
2022/07/08 08:42:39;;;;;;;2.60;0.70;;;21.10;92.40;;;;;;5043643;28;20364;-68
2022/07/08 08:45:05;;;;;;;2.20;0.90;;;21.20;92.40;;;;;;5059912;28;20024;-67
2022/07/08 08:47:33;;;;;;;2.25;0.60;;;21.30;92.20;;;;;;5044549;28;20232;-68
2022/07/08 08:50:53;;;;;;;1.23;0.75;;;21.40;92.00;;;;;;5043797;28;20021;-68
2022/07/08 08:52:51;;;;;;;0.68;0.60;;;21.40;91.80;;;;;;5057253;28;20048;-67
2022/07/08 08:55:33;;;;;;;0.35;0.35;;;21.50;91.40;;;;;;5058619;28;20033;-67
2022/07/08 08:58:02;;;;;;;2.90;1.10;;;21.50;91.00;;;;;;5043748;28;20056;-67
2022/07/08 09:00:30;;;;;;;4.38;0.75;;;21.60;91.10;;;;;;5042606;28;20190;-67
2022/07/08 09:02:56;;;;;;;3.60;0.77;;;21.60;91.50;;;;;;5044446;28;20017;-69
2022/07/08 09:05:24;;;;;;;0.80;0.60;;;21.70;91.30;;;;;;5043016;28;20224;-66
2022/07/08 09:07:50;;;;;;;1.20;0.60;;;21.90;90.90;;;;;;5042932;28;20064;-71
2022/07/08 09:10:17;;;;;;;0.77;0.75;;;22.00;91.00;;;;;;5044196;28;20017;-69
2022/07/08 09:13:05;;;;;;;4.00;0.80;;;22.10;90.70;;;;;;5043900;28;20021;-68
2022/07/08 09:15:34;;;;;;;3.65;0.93;;;22.10;90.70;;;;;;5056779;28;20033;-68
2022/07/08 09:18:01;;;;;;;1.85;0.80;;;22.00;90.50;;;;;;5058896;28;20029;-69
2022/07/08 09:20:37;;;;;;;5.07;1.15;;;21.90;90.70;;;;;;5043116;28;20060;-69
2022/07/08 09:23:03;;;;;;;2.15;0.85;;;22.00;90.70;;;;;;5041237;28;20096;-69
2022/07/08 09:25:32;;;;;;;1.83;0.47;;;22.10;89.90;;;;;;5043502;28;20390;-68
2022/07/08 09:27:58;;;;;;;2.08;0.60;;;22.10;89.10;;;;;;5042732;28;20029;-68
2022/07/08 09:30:29;;;;;;;0.82;0.60;;;22.20;89.10;;;;;;5058801;28;20025;-66
2022/07/08 09:32:57;;;;;;;1.00;0.60;;;22.20;90.10;;;;;;5058811;28;20148;-68
2022/07/08 09:35:36;;;;;;;3.60;0.88;;;22.50;89.30;;;;;;5042211;28;20057;-69
2022/07/08 09:38:04;;;;;;;1.77;0.90;;;22.50;88.60;;;;;;5042031;28;20143;-69
2022/07/08 09:40:29;;;;;;;3.17;0.65;;;22.50;87.00;;;;;;5043555;28;20086;-67
2022/07/08 09:42:55;;;;;;;2.55;1.00;;;22.40;88.50;;;;;;5041106;28;20072;-70
2022/07/08 09:45:44;;;;;;;1.67;0.73;;;22.50;88.30;;;;;;5042955;28;20040;-69
2022/07/08 09:48:21;;;;;;;3.20;0.90;;;22.60;88.50;;;;;;5042690;28;20022;-69
2022/07/08 09:51:10;;;;;;;2.78;0.85;;;22.80;88.30;;;;;;5042238;28;20026;-69
2022/07/08 09:53:49;;;;;;;1.52;1.02;;;22.80;87.60;;;;;;5041216;28;20295;-68
2022/07/08 09:56:16;;;;;;;1.25;0.70;;;22.70;88.20;;;;;;5057466;28;20080;-67
2022/07/08 09:58:49;;;;;;;1.55;0.70;;;22.70;88.70;;;;;;5042582;28;20031;-67
2022/07/08 10:01:15;;;;;;;0.73;0.73;;;22.80;87.60;;;;;;5041531;28;20097;-70
2022/07/08 10:03:41;;;;;;;3.58;0.85;;;23.00;87.30;;;;;;5041558;28;20037;-68
2022/07/08 10:06:06;;;;;;;3.67;1.13;;;23.00;87.90;;;;;;5041638;28;20059;-70
2022/07/08 10:08:32;;;;;;;0.80;0.60;;;23.10;86.60;;;;;;5043148;28;20036;-68
2022/07/08 10:11:01;;;;;;;1.27;0.80;;;23.30;85.90;;;;;;5042526;28;20018;-70
2022/07/08 10:13:27;;;;;;;1.27;0.68;;;23.40;85.60;;;;;;5058275;28;20040;-68
2022/07/08 10:15:57;;;;;;;2.42;1.13;;;23.50;86.10;;;;;;5041687;28;20071;-69
2022/07/08 10:18:42;;;;;;;1.15;0.77;;;23.70;85.30;;;;;;5042504;28;20060;-68
2022/07/08 10:21:11;;;;;;;2.38;0.90;;;23.80;85.70;;;;;;5042051;28;20025;-69
2022/07/08 10:23:50;;;;;;;1.83;0.90;;;23.70;85.10;;;;;;5042928;28;20297;-69
2022/07/08 10:26:24;;;;;;;3.55;1.05;;;23.60;85.80;;;;;;5042593;28;20033;-69
2022/07/08 10:29:07;;;;;;;2.28;1.10;;;23.40;86.50;;;;;;5058314;28;20029;-69
2022/07/08 10:31:51;;;;;;;4.63;1.15;;;23.50;86.10;;;;;;5041611;28;20182;-68
2022/07/08 10:34:30;;;;;;;5.13;0.98;;;23.60;85.80;;;;;;5042411;28;20029;-70
2022/07/08 10:36:56;;;;;;;2.05;0.73;;;23.70;85.30;;;;;;5043026;28;20025;-68
2022/07/08 10:39:41;;;;;;;1.73;0.80;;;23.90;83.70;;;;;;5042186;28;20037;-69
2022/07/08 10:42:09;;;;;;;0.98;0.73;;;23.80;83.40;;;;;;5041025;28;20320;-70
2022/07/08 10:44:52;;;;;;;1.35;0.70;;;23.80;83.80;;;;;;5041191;28;20025;-69
2022/07/08 10:47:25;;;;;;;2.42;0.90;;;23.80;84.60;;;;;;5042328;28;20067;-67
2022/07/08 10:49:51;;;;;;;1.20;0.60;;;23.80;85.10;;;;;;5040676;28;20037;-68
2022/07/08 10:52:21;;;;;;;2.05;0.65;;;23.80;83.50;;;;;;5040248;28;20048;-68
2022/07/08 10:54:46;;;;;;;3.30;0.70;;;23.90;82.60;;;;;;5040976;28;20022;-68
2022/07/08 10:57:28;;;;;;;3.55;1.00;;;24.00;82.40;;;;;;5038962;28;20094;-69
2022/07/08 11:00:01;;;;;;;;;;;24.20;82.90;;;;;;5041714;28;20065;-67
2022/07/08 11:02:27;;;;;;;0.55;0.50;;;24.30;82.40;;;;;;5028177;28;20081;-68
2022/07/08 11:04:54;;;;;;;3.92;0.75;;;24.30;80.60;;;;;;5040885;28;20025;-69
2022/07/08 11:07:24;;;;;;;1.75;0.90;;;24.30;81.00;;;;;;5041330;28;20317;-67
2022/07/08 11:09:52;;;;;;;1.50;0.43;;;24.20;81.40;;;;;;5042380;28;20081;-69
2022/07/08 11:12:20;;;;;;;1.10;0.90;;;24.20;80.90;;;;;;5040936;28;20025;-67
2022/07/08 11:14:48;;;;;;;2.85;0.60;;;24.30;82.30;;;;;;5040263;28;20352;-67
2022/07/08 11:17:15;;;;;;;0.98;0.60;;;24.60;80.60;;;;;;5041182;28;20071;-68
2022/07/08 11:19:41;;;;;;;0.80;0.57;;;24.60;80.40;;;;;;5040639;28;20057;-69
2022/07/08 11:22:08;;;;;;;1.85;0.75;;;24.70;80.70;;;;;;5040742;28;20051;-70
2022/07/08 11:24:37;;;;;;;1.75;0.60;;;24.60;80.30;;;;;;5045050;28;20022;-68
2022/07/08 11:27:03;;;;;;;2.42;0.77;;;24.60;79.40;;;;;;5044885;28;20048;-70
2022/07/08 11:29:29;;;;;;;2.88;0.50;;;24.70;79.00;;;;;;5044920;28;20236;-69
2022/07/08 11:31:57;;;;;;;3.08;0.90;;;24.80;78.40;;;;;;5045008;28;20029;-69
2022/07/08 11:34:24;;;;;;;2.63;0.65;;;25.00;78.20;;;;;;5044726;28;20056;-68
2022/07/08 11:37:00;;;;;;;1.23;0.68;;;25.00;78.20;;;;;;5044279;28;20026;-69
2022/07/08 11:39:26;;;;;;;1.23;0.80;;;24.90;78.50;;;;;;5045764;28;20119;-69
2022/07/08 11:41:52;;;;;;;3.13;0.73;;;24.90;79.30;;;;;;5045329;28;20037;-69
2022/07/08 11:44:20;;;;;;;3.00;0.80;;;25.00;79.00;;;;;;5045403;28;20032;-69
2022/07/08 11:46:48;;;;;;;1.30;0.70;;;24.90;78.70;;;;;;5043122;28;20037;-69
2022/07/08 11:49:14;;;;;;;2.08;0.80;;;24.70;79.10;;;;;;5044506;28;20037;-69
2022/07/08 11:51:48;;;;;;;1.05;0.65;;;24.70;79.50;;;;;;5044354;28;20045;-69
2022/07/08 11:54:14;;;;;;;2.47;0.95;;;24.70;79.50;;;;;;5045794;28;20025;-69
2022/07/08 11:56:40;;;;;;;2.05;0.85;;;24.90;78.60;;;;;;5044933;28;20108;-69
2022/07/08 11:59:06;;;;;;;0.85;0.80;;;24.90;78.70;;;;;;5045323;28;20033;-68
2022/07/08 12:01:33;;;;;;;2.15;0.90;;;24.90;79.30;;;;;;5043988;28;20037;-69
2022/07/08 12:04:02;;;;;;;1.85;0.75;;;25.00;78.60;;;;;;5044368;28;20018;-68
2022/07/08 12:06:28;;;;;;;2.33;1.00;;;24.90;79.70;;;;;;5043537;28;20331;-69
2022/07/08 12:08:54;;;;;;;2.92;0.75;;;25.00;80.20;;;;;;5045312;28;20029;-69
2022/07/08 12:11:22;;;;;;;1.50;0.90;;;25.10;78.70;;;;;;5044307;28;20029;-68
2022/07/08 12:13:50;;;;;;;2.78;1.00;;;25.00;78.60;;;;;;5045093;28;20017;-68
2022/07/08 12:16:41;;;;;;;3.33;1.08;;;24.90;79.50;;;;;;5045570;28;20032;-68
2022/07/08 12:19:23;;;;;;;2.45;1.10;;;25.00;80.10;;;;;;5031443;28;20101;-68
2022/07/08 12:21:49;;;;;;;3.03;1.00;;;25.30;78.90;;;;;;5027303;28;20048;-68
2022/07/08 12:24:15;;;;;;;1.27;0.93;;;25.60;78.40;;;;;;5044088;28;20025;-71
2022/07/08 12:26:52;;;;;;;4.50;0.90;;;25.90;78.20;;;;;;5043720;28;20331;-68
2022/07/08 12:29:19;;;;;;;1.85;0.70;;;26.10;77.60;;;;;;5043717;28;20029;-68
2022/07/08 12:31:45;;;;;;;2.42;1.05;;;26.20;77.30;;;;;;5045159;28;20034;-69
2022/07/08 12:34:17;;;;;;;1.73;0.88;;;26.20;76.50;;;;;;5043913;28;20366;-69
2022/07/08 12:36:43;;;;;;;1.35;0.82;;;26.10;77.10;;;;;;5042101;28;20025;-69
2022/07/08 12:39:27;;;;;;;0.98;0.88;;;25.90;77.10;;;;;;5042883;28;20099;-69
2022/07/08 12:42:02;;;;;;;1.70;0.90;;;25.90;77.70;;;;;;5043614;28;20029;-67
2022/07/08 12:44:29;;;;;;;3.78;1.10;;;26.00;77.40;;;;;;5042737;28;20324;-69
2022/07/08 12:46:56;;;;;;;1.50;0.90;;;26.10;77.60;;;;;;5043972;28;20064;-68
2022/07/08 12:49:29;;;;;;;2.90;1.30;;;26.20;76.90;;;;;;5041642;28;20037;-68